Terminal Aerodrome Forecast
Issued by NWS

Home | Current Version | Previous Version | Text Only | Print | Product List | Glossary On
Versions: 1 2 3 4 5 6 7 8 9 10 11 12 13
000
FTUS43 KDTX 061733
TAFMBS
TAF
KMBS 061733Z 0618/0718 24006KT P6SM SKC
     FM062000 04007KT P6SM SKC
     FM070300 17007KT P6SM BKN120
     FM070700 19008KT P6SM -SHRA SCT040 BKN100
     FM071200 25010KT P6SM SHRA BKN045 OVC060 PROB30 0712/0715 2SM
      TSRA OVC025CB
     FM071500 33015G22KT P6SM BKN030=

USA.gov is the U.S. government's official web portal to all federal, state and local government web resources and services.